LEAM/LEI METAR and TAF weather

Enter ICAO airport designator
Station Type Date Time Source
LEAM METAR 2020/07/05 17:00 UTC NOAA

LEAM 051700Z 08014KT CAVOK 33/15 Q1016


Station Type Date Time Source
LEAM Decoded METAR 2020/07/05 17:00 UTC NOAA

Almeria / Aeropuerto, Spain (LEAM) 36-51N 002-23W 21M
Jul 05, 2020 - 01:00 PM EDT / 2020.07.05 1700 UTC
Wind: from the E (080 degrees) at 16 MPH (14 KT):0
Visibility: greater than 7 mile(s):0
Temperature: 91 F (33 C)
Dew Point: 59 F (15 C)
Relative Humidity: 33%
Pressure (altimeter): 30.00 in. Hg (1016 hPa)
ob: LEAM 051700Z 08014KT CAVOK 33/15 Q1016
cycle: 17

Station Type Date Time Source
LEAM TAF 2020/07/05 15:31 UTC NOAA

TAF LEAM 051400Z 0515/0615 09013KT CAVOK TX36/0515Z TN23/0605Z
BECMG 0520/0522 01004KT
BECMG 0609/0611 23010KT

Example: see airport list